AirNav   Duncan Aviation - Near you to keep you flying
 
 1663 users online  

7M9 Salem Airport
Salem, Arkansas, USA

GOING TO SALEM?


FAA INFORMATION EFFECTIVE 26 JANUARY 2023

Location

FAA Identifier: 7M9
Lat/Long: 36-21-21.2690N 091-49-51.4370W
36-21.354483N 091-49.857283W
36.3559081,-91.8309547
(estimated)
Elevation: 786.7 ft. / 239.8 m (surveyed)
Variation: 03E (1990)
From city: 1 mile S of SALEM, AR
Time zone: UTC -6 (UTC -5 during Daylight Saving Time)
Zip code: 72576

Airport Operations

Airport use: Open to the public
Activation date: 11/1969
Control tower: no
ARTCC: MEMPHIS CENTER
FSS: JONESBORO FLIGHT SERVICE STATION
NOTAMs facility: JBR (NOTAM-D service available)
Attendance: UNATNDD
Wind indicator: lighted
Segmented circle: no
Lights: ACTVT MIRL RY 02/20 - CTAF.
Beacon: white-green (lighted land airport)
Operates sunset to sunrise.

Airport Communications

CTAF: 122.9

Airport Services

Fuel available: 100LL
100LL:FOR SVC CALL 870-371-0756 OR 870-371-1025 (NO FEE).
Parking: tiedowns
Bottled oxygen: NONE
Bulk oxygen: NONE

Runway Information

Runway 2/20

Dimensions: 3489 x 50 ft. / 1063 x 15 m
Surface: asphalt, in good condition
Runway edge lights: medium intensity
RUNWAY 2  RUNWAY 20
Latitude: 36-21.089933N36-21.619017N
Longitude: 091-49.996483W091-49.718050W
Elevation: 786.7 ft.704.0 ft.
Traffic pattern: leftleft
Runway heading: 020 magnetic, 023 true200 magnetic, 203 true
Displaced threshold: 1233 ft.248 ft.
Markings: basic, in good conditionnonprecision, in good condition
Touchdown point: yes, no lightsyes, no lights
Obstructions: 50 ft. hill, lighted, 200 ft. from runway, 150 ft. right of centerline
+50 FT HILL 20 FT FM THLD BOTH SIDES OF CNTRLN.
25 ft. tree, 500 ft. from runway, 75 ft. left of centerline, 12:1 slope to clear
+60 FT TREES 50 FT L OF CNTRLN 100 FT FM RY END; +10 FT ROAD 50 FT FM RY END.

Airport Ownership and Management from official FAA records

Ownership: Publicly-owned
Owner: CITY OF SALEM
PO BOX 619
SALEM, AR 72576
Phone 870-895-3478
Manager: ELBERT LAYNE
PO BOX 1015
SALEM, AR 72576
Phone (870) 371-0756

Airport Operational Statistics

Aircraft based on the field: 9
Single engine airplanes: 9
    
Aircraft operations: avg 60/week *
48% transient general aviation
48% local general aviation
5% military
* for 12-month period ending 31 January 2022

Additional Remarks

RY 02 HAS 3 FT DITCH AT END OF RY EXTENDING 700 FT ALONG EAST SIDE OF RY.
ALL ACFT LAND RY 20; TKOF RY 02.
DEER ON & INVOF RY.
FOR CD CTC MEMPHIS ARTCC AT 901-368-8453/8449.

Instrument Procedures

There are no published instrument procedures at 7M9.

Some nearby airports with instrument procedures:

6M2 - Horseshoe Bend Airport (9 nm SE)
KCVK - Sharp County Regional Airport (14 nm SE)
42A - Melbourne Municipal Airport - John E Miller Field (17 nm S)
KBPK - Baxter County Airport (31 nm W)
KUNO - West Plains Regional Airport (32 nm N)
 
Loc | Ops | Rwys | IFR | FBO | Links
Com | Nav | Svcs | Stats | Notes
Area around 7M9 (Salem Airport)
 
Road maps at: MapQuest Bing Google
 
Aerial photo
WARNING: Photo may not be current or correct
Aerial photo of 7M9 (Salem Airport)
Photo courtesy of the Arkansas Department of Aeronautics
Taken in the Spring of 2007

Do you have a better or more recent aerial photo of Salem Airport that you would like to share? If so, please send us your photo.

 
Sectional chart

 
Airport distance calculator
Flying to Salem Airport? Find the distance to fly.

From to 7M9

Sunrise and sunset
Times for 08-Feb-2023
 Local
(UTC-6)
 Zulu
(UTC)
Morning civil twilight06:3712:37
Sunrise07:0313:03
Sunset17:4023:40
Evening civil twilight18:0600:06

Current date and time
Zulu (UTC)  08-Feb-2023 20:01:10
Local (UTC-6)  08-Feb-2023 14:01:10
 
METAR
KBPK 
31nm W 
081953Z AUTO 13008KT 3SM +RA BR OVC003 09/09 A2994 RMK AO2 SLP139 P0030 T00940089
KFLP 
31nm W 
081956Z AUTO 10011G17KT 4SM +RA BR OVC003 09/09 A2994 RMK AO2 PRESFR SLP139 P0024 T00940094
KUNO 
32nm N 
081953Z AUTO 09006KT 5SM RA BR OVC003 07/07 A3000 RMK AO2 SLP162 P0016 T00720067
KBVX 
39nm S 
081956Z AUTO 13004KT 4SM RA BR OVC005 10/10 A2997 RMK AO2 CIG 003V008 SLP149 P0023 T01000100
KARG 
47nm E 
081956Z AUTO 06009KT 4SM RA BR BKN004 BKN011 OVC043 09/09 A3000 RMK AO2 CIG 002V008 SLP161 P0014 T00940094
TAF
KBPK 
31nm W 
081720Z 0818/0918 11010KT 6SM -SHRA BR VCTS OVC005CB TEMPO 0818/0822 4SM -TSRA BR OVC004CB FM082200 11010KT 4SM -SHRA BR OVC005 FM090000 11010G16KT 3SM -SHRA BR OVC003 FM090400 16013G22KT 1SM -SHRA BR OVC003 WS005/18045KT FM090700 23018G28KT 5SM BR BKN008 OVC015 FM091100 27020G33KT 6SM BR BKN015 OVC030 FM091500 27020G33KT P6SM SCT015 BKN030 BKN250
NOTAMs
Click for the latest NOTAMs
NOTAMs are issued by the DoD/FAA and will open in a separate window not controlled by AirNav.

 

 
 

FBO, Fuel Providers, and Aircraft Ground Support

  
 Business Name 
 
 Contact 
 
 Services / Description 
 
Fuel Prices
 
Comments
  
City of Salem 870-371-0756
no information available

If you are affiliated with City of Salem and would like to show here your services, contact info, web link, logo, and more, click here
100LL
SS $7.25 
 Updated 02-Aug-2022
 
   write
SS=Self service
Update Fuel Prices
 

Would you like to see your business listed on this page?

 If your business provides an interesting product or service to pilots, flight crews, aircraft, or users of the Salem Airport, you should consider listing it here.  To start the listing process, click on the button below
 
Add a business
 

Other Pages about Salem Airport

Update a link
 
Copyright © AirNav, LLC. All rights reserved. Privacy Policy  Contact